sensor_id;sensor_type;location;lat;lon;timestamp;pressure;altitude;pressure_sealevel;temperature
76394;BMP180;65216;51.090;-115.352;2023-09-12T00:02:14;86904.20;;;22.70
76394;BMP180;65216;51.090;-115.352;2023-09-12T00:04:41;86899.80;;;22.70
76394;BMP180;65216;51.090;-115.352;2023-09-12T00:07:08;86892.40;;;22.70
76394;BMP180;65216;51.090;-115.352;2023-09-12T00:09:36;86905.80;;;22.70
76394;BMP180;65216;51.090;-115.352;2023-09-12T00:12:03;86904.60;;;22.70
76394;BMP180;65216;51.090;-115.352;2023-09-12T00:14:30;86902.00;;;22.70
76394;BMP180;65216;51.090;-115.352;2023-09-12T00:16:56;86899.20;;;22.70
76394;BMP180;65216;51.090;-115.352;2023-09-12T00:19:23;86897.20;;;22.70
76394;BMP180;65216;51.090;-115.352;2023-09-12T00:21:53;86883.20;;;22.70
76394;BMP180;65216;51.090;-115.352;2023-09-12T00:24:20;86889.80;;;22.64
76394;BMP180;65216;51.090;-115.352;2023-09-12T00:26:50;86896.00;;;22.64
76394;BMP180;65216;51.090;-115.352;2023-09-12T00:29:17;86896.80;;;22.64
76394;BMP180;65216;51.090;-115.352;2023-09-12T00:31:47;86888.60;;;22.60
76394;BMP180;65216;51.090;-115.352;2023-09-12T00:34:17;86885.60;;;22.60
76394;BMP180;65216;51.090;-115.352;2023-09-12T00:36:44;86901.00;;;22.60
76394;BMP180;65216;51.090;-115.352;2023-09-12T00:39:13;86888.60;;;22.60
76394;BMP180;65216;51.090;-115.352;2023-09-12T00:41:40;86888.40;;;22.60
76394;BMP180;65216;51.090;-115.352;2023-09-12T00:44:08;86894.40;;;22.52
76394;BMP180;65216;51.090;-115.352;2023-09-12T00:46:37;86884.60;;;22.50
76394;BMP180;65216;51.090;-115.352;2023-09-12T00:49:08;86884.40;;;22.50
76394;BMP180;65216;51.090;-115.352;2023-09-12T00:51:36;86878.60;;;22.50
76394;BMP180;65216;51.090;-115.352;2023-09-12T00:54:04;86888.20;;;22.50
76394;BMP180;65216;51.090;-115.352;2023-09-12T00:56:32;86879.00;;;22.50
76394;BMP180;65216;51.090;-115.352;2023-09-12T00:59:01;86876.80;;;22.50
76394;BMP180;65216;51.090;-115.352;2023-09-12T01:01:32;86881.00;;;22.42
76394;BMP180;65216;51.090;-115.352;2023-09-12T01:03:59;86878.80;;;22.40
76394;BMP180;65216;51.090;-115.352;2023-09-12T01:06:31;86872.80;;;22.40
76394;BMP180;65216;51.090;-115.352;2023-09-12T01:08:58;86876.40;;;22.40
76394;BMP180;65216;51.090;-115.352;2023-09-12T01:11:26;86870.40;;;22.40
76394;BMP180;65216;51.090;-115.352;2023-09-12T01:13:56;86864.80;;;22.40
76394;BMP180;65216;51.090;-115.352;2023-09-12T01:16:23;86877.20;;;22.40
76394;BMP180;65216;51.090;-115.352;2023-09-12T01:18:50;86868.00;;;22.40
76394;BMP180;65216;51.090;-115.352;2023-09-12T01:29:57;86869.60;;;22.30
76394;BMP180;65216;51.090;-115.352;2023-09-12T01:32:26;86873.20;;;22.30
76394;BMP180;65216;51.090;-115.352;2023-09-12T01:34:53;86865.60;;;22.30
76394;BMP180;65216;51.090;-115.352;2023-09-12T01:37:20;86858.20;;;22.30
76394;BMP180;65216;51.090;-115.352;2023-09-12T01:39:47;86871.40;;;22.30
76394;BMP180;65216;51.090;-115.352;2023-09-12T01:42:18;86873.80;;;22.30
76394;BMP180;65216;51.090;-115.352;2023-09-12T01:44:50;86869.80;;;22.30
76394;BMP180;65216;51.090;-115.352;2023-09-12T01:47:22;86866.00;;;22.30
76394;BMP180;65216;51.090;-115.352;2023-09-12T01:49:54;86855.80;;;22.30
76394;BMP180;65216;51.090;-115.352;2023-09-12T01:52:22;86852.80;;;22.30
76394;BMP180;65216;51.090;-115.352;2023-09-12T01:54:51;86874.60;;;22.20
76394;BMP180;65216;51.090;-115.352;2023-09-12T01:57:19;86868.40;;;22.20
76394;BMP180;65216;51.090;-115.352;2023-09-12T01:59:52;86882.20;;;22.20
76394;BMP180;65216;51.090;-115.352;2023-09-12T02:02:19;86884.00;;;22.20
76394;BMP180;65216;51.090;-115.352;2023-09-12T02:07:37;86886.00;;;22.20
76394;BMP180;65216;51.090;-115.352;2023-09-12T02:10:05;86883.60;;;22.20
76394;BMP180;65216;51.090;-115.352;2023-09-12T02:12:33;86875.80;;;22.20
76394;BMP180;65216;51.090;-115.352;2023-09-12T02:15:03;86882.80;;;22.20
76394;BMP180;65216;51.090;-115.352;2023-09-12T02:17:33;86882.60;;;22.20
76394;BMP180;65216;51.090;-115.352;2023-09-12T02:20:00;86883.20;;;22.20
76394;BMP180;65216;51.090;-115.352;2023-09-12T02:22:26;86887.40;;;22.20
76394;BMP180;65216;51.090;-115.352;2023-09-12T02:24:53;86890.20;;;22.18
76394;BMP180;65216;51.090;-115.352;2023-09-12T02:27:20;86871.60;;;22.16
76394;BMP180;65216;51.090;-115.352;2023-09-12T02:29:47;86873.40;;;22.10
76394;BMP180;65216;51.090;-115.352;2023-09-12T02:32:14;86886.40;;;22.10
76394;BMP180;65216;51.090;-115.352;2023-09-12T02:34:41;86878.60;;;22.10
76394;BMP180;65216;51.090;-115.352;2023-09-12T02:37:08;86879.00;;;22.10
76394;BMP180;65216;51.090;-115.352;2023-09-12T02:39:35;86870.60;;;22.10
76394;BMP180;65216;51.090;-115.352;2023-09-12T02:42:01;86882.00;;;22.10
76394;BMP180;65216;51.090;-115.352;2023-09-12T02:44:29;86881.00;;;22.10
76394;BMP180;65216;51.090;-115.352;2023-09-12T02:46:57;86890.00;;;22.10
76394;BMP180;65216;51.090;-115.352;2023-09-12T02:49:27;86881.80;;;22.10
76394;BMP180;65216;51.090;-115.352;2023-09-12T02:51:53;86886.00;;;22.08
76394;BMP180;65216;51.090;-115.352;2023-09-12T02:54:20;86886.20;;;22.08
76394;BMP180;65216;51.090;-115.352;2023-09-12T02:56:47;86894.40;;;22.00
76394;BMP180;65216;51.090;-115.352;2023-09-12T02:59:14;86889.00;;;22.00
76394;BMP180;65216;51.090;-115.352;2023-09-12T03:01:41;86889.00;;;22.00
76394;BMP180;65216;51.090;-115.352;2023-09-12T03:04:08;86887.80;;;22.00
76394;BMP180;65216;51.090;-115.352;2023-09-12T03:06:34;86880.60;;;22.00
76394;BMP180;65216;51.090;-115.352;2023-09-12T03:09:02;86881.20;;;22.00
76394;BMP180;65216;51.090;-115.352;2023-09-12T03:11:29;86890.20;;;22.00
76394;BMP180;65216;51.090;-115.352;2023-09-12T03:13:56;86908.60;;;22.00
76394;BMP180;65216;51.090;-115.352;2023-09-12T03:16:23;86906.20;;;22.00
76394;BMP180;65216;51.090;-115.352;2023-09-12T03:18:50;86916.40;;;22.00
76394;BMP180;65216;51.090;-115.352;2023-09-12T03:21:17;86903.20;;;22.00
76394;BMP180;65216;51.090;-115.352;2023-09-12T03:23:44;86904.40;;;22.00
76394;BMP180;65216;51.090;-115.352;2023-09-12T03:26:12;86914.40;;;22.00
76394;BMP180;65216;51.090;-115.352;2023-09-12T03:28:38;86913.40;;;21.96
76394;BMP180;65216;51.090;-115.352;2023-09-12T03:31:13;86913.00;;;21.98
76394;BMP180;65216;51.090;-115.352;2023-09-12T03:33:44;86908.80;;;21.92
76394;BMP180;65216;51.090;-115.352;2023-09-12T03:36:17;86910.40;;;21.90
76394;BMP180;65216;51.090;-115.352;2023-09-12T03:38:46;86921.60;;;21.90
76394;BMP180;65216;51.090;-115.352;2023-09-12T03:41:13;86920.40;;;21.90
76394;BMP180;65216;51.090;-115.352;2023-09-12T03:43:43;86923.60;;;21.90
76394;BMP180;65216;51.090;-115.352;2023-09-12T03:46:10;86920.40;;;21.90
76394;BMP180;65216;51.090;-115.352;2023-09-12T03:48:37;86925.80;;;21.90
76394;BMP180;65216;51.090;-115.352;2023-09-12T03:51:04;86923.60;;;21.90
76394;BMP180;65216;51.090;-115.352;2023-09-12T03:53:31;86929.40;;;21.90
76394;BMP180;65216;51.090;-115.352;2023-09-12T03:56:00;86931.00;;;21.90
76394;BMP180;65216;51.090;-115.352;2023-09-12T03:58:27;86933.20;;;21.90
76394;BMP180;65216;51.090;-115.352;2023-09-12T04:00:54;86934.80;;;21.90
76394;BMP180;65216;51.090;-115.352;2023-09-12T04:03:21;86915.40;;;21.90
76394;BMP180;65216;51.090;-115.352;2023-09-12T04:05:50;86905.40;;;21.90
76394;BMP180;65216;51.090;-115.352;2023-09-12T04:08:18;86924.20;;;21.84
76394;BMP180;65216;51.090;-115.352;2023-09-12T04:10:45;86930.80;;;21.80
76394;BMP180;65216;51.090;-115.352;2023-09-12T04:13:12;86934.00;;;21.80
76394;BMP180;65216;51.090;-115.352;2023-09-12T04:15:39;86925.00;;;21.82
76394;BMP180;65216;51.090;-115.352;2023-09-12T04:18:06;86918.80;;;21.80
76394;BMP180;65216;51.090;-115.352;2023-09-12T04:20:33;86912.80;;;21.80
76394;BMP180;65216;51.090;-115.352;2023-09-12T04:23:03;86926.40;;;21.80
76394;BMP180;65216;51.090;-115.352;2023-09-12T04:25:31;86926.40;;;21.80
76394;BMP180;65216;51.090;-115.352;2023-09-12T04:27:58;86924.40;;;21.80
76394;BMP180;65216;51.090;-115.352;2023-09-12T04:30:25;86923.40;;;21.80
76394;BMP180;65216;51.090;-115.352;2023-09-12T04:32:52;86918.80;;;21.80
76394;BMP180;65216;51.090;-115.352;2023-09-12T04:35:19;86915.60;;;21.80
76394;BMP180;65216;51.090;-115.352;2023-09-12T04:37:48;86914.60;;;21.80
76394;BMP180;65216;51.090;-115.352;2023-09-12T04:40:15;86923.20;;;21.80
76394;BMP180;65216;51.090;-115.352;2023-09-12T04:42:42;86930.20;;;21.80
76394;BMP180;65216;51.090;-115.352;2023-09-12T04:45:09;86923.00;;;21.78
76394;BMP180;65216;51.090;-115.352;2023-09-12T04:47:36;86932.20;;;21.80
76394;BMP180;65216;51.090;-115.352;2023-09-12T04:50:04;86928.20;;;21.80
76394;BMP180;65216;51.090;-115.352;2023-09-12T04:52:31;86928.60;;;21.76
76394;BMP180;65216;51.090;-115.352;2023-09-12T04:54:58;86927.20;;;21.76
76394;BMP180;65216;51.090;-115.352;2023-09-12T04:57:24;86918.20;;;21.70
76394;BMP180;65216;51.090;-115.352;2023-09-12T04:59:52;86921.20;;;21.70
76394;BMP180;65216;51.090;-115.352;2023-09-12T05:02:19;86920.40;;;21.70
76394;BMP180;65216;51.090;-115.352;2023-09-12T05:04:45;86931.20;;;21.70
76394;BMP180;65216;51.090;-115.352;2023-09-12T05:07:13;86926.80;;;21.70
76394;BMP180;65216;51.090;-115.352;2023-09-12T05:09:40;86922.60;;;21.70
76394;BMP180;65216;51.090;-115.352;2023-09-12T05:12:07;86921.00;;;21.70
76394;BMP180;65216;51.090;-115.352;2023-09-12T05:14:34;86921.80;;;21.70
76394;BMP180;65216;51.090;-115.352;2023-09-12T05:17:01;86924.20;;;21.70
76394;BMP180;65216;51.090;-115.352;2023-09-12T05:19:30;86926.60;;;21.70
76394;BMP180;65216;51.090;-115.352;2023-09-12T05:21:57;86925.20;;;21.70
76394;BMP180;65216;51.090;-115.352;2023-09-12T05:24:24;86919.80;;;21.70
76394;BMP180;65216;51.090;-115.352;2023-09-12T05:26:51;86917.60;;;21.70
76394;BMP180;65216;51.090;-115.352;2023-09-12T05:29:18;86919.80;;;21.70
76394;BMP180;65216;51.090;-115.352;2023-09-12T05:31:45;86913.00;;;21.66
76394;BMP180;65216;51.090;-115.352;2023-09-12T05:34:12;86920.00;;;21.68
76394;BMP180;65216;51.090;-115.352;2023-09-12T05:36:39;86917.40;;;21.70
76394;BMP180;65216;51.090;-115.352;2023-09-12T05:39:06;86909.80;;;21.70
76394;BMP180;65216;51.090;-115.352;2023-09-12T05:41:33;86900.40;;;21.68
76394;BMP180;65216;51.090;-115.352;2023-09-12T05:44:00;86912.40;;;21.66
76394;BMP180;65216;51.090;-115.352;2023-09-12T05:46:27;86912.20;;;21.66
76394;BMP180;65216;51.090;-115.352;2023-09-12T05:48:54;86914.40;;;21.62
76394;BMP180;65216;51.090;-115.352;2023-09-12T05:51:21;86917.20;;;21.60
76394;BMP180;65216;51.090;-115.352;2023-09-12T05:53:48;86909.20;;;21.60
76394;BMP180;65216;51.090;-115.352;2023-09-12T05:56:16;86910.80;;;21.60
76394;BMP180;65216;51.090;-115.352;2023-09-12T05:58:43;86911.80;;;21.60
76394;BMP180;65216;51.090;-115.352;2023-09-12T06:01:09;86916.00;;;21.60
76394;BMP180;65216;51.090;-115.352;2023-09-12T06:03:39;86916.20;;;21.60
76394;BMP180;65216;51.090;-115.352;2023-09-12T06:06:06;86910.60;;;21.60
76394;BMP180;65216;51.090;-115.352;2023-09-12T06:08:33;86920.00;;;21.60
76394;BMP180;65216;51.090;-115.352;2023-09-12T06:11:00;86912.60;;;21.60
76394;BMP180;65216;51.090;-115.352;2023-09-12T06:13:27;86910.40;;;21.60
76394;BMP180;65216;51.090;-115.352;2023-09-12T06:15:57;86919.60;;;21.60
76394;BMP180;65216;51.090;-115.352;2023-09-12T06:18:24;86905.60;;;21.60
76394;BMP180;65216;51.090;-115.352;2023-09-12T06:20:54;86913.40;;;21.60
76394;BMP180;65216;51.090;-115.352;2023-09-12T06:23:21;86911.00;;;21.60
76394;BMP180;65216;51.090;-115.352;2023-09-12T06:25:48;86919.00;;;21.56
76394;BMP180;65216;51.090;-115.352;2023-09-12T06:28:26;86916.60;;;21.58
76394;BMP180;65216;51.090;-115.352;2023-09-12T06:30:53;86910.40;;;21.60
76394;BMP180;65216;51.090;-115.352;2023-09-12T06:33:20;86911.00;;;21.56
76394;BMP180;65216;51.090;-115.352;2023-09-12T06:35:51;86908.00;;;21.56
76394;BMP180;65216;51.090;-115.352;2023-09-12T06:38:23;86913.20;;;21.50
76394;BMP180;65216;51.090;-115.352;2023-09-12T06:40:52;86915.40;;;21.50
76394;BMP180;65216;51.090;-115.352;2023-09-12T06:43:19;86923.00;;;21.50
76394;BMP180;65216;51.090;-115.352;2023-09-12T06:45:47;86916.80;;;21.50
76394;BMP180;65216;51.090;-115.352;2023-09-12T06:48:14;86921.60;;;21.50
76394;BMP180;65216;51.090;-115.352;2023-09-12T06:50:42;86927.80;;;21.50
76394;BMP180;65216;51.090;-115.352;2023-09-12T06:53:09;86927.00;;;21.50
76394;BMP180;65216;51.090;-115.352;2023-09-12T06:55:36;86932.00;;;21.50
76394;BMP180;65216;51.090;-115.352;2023-09-12T06:58:03;86927.60;;;21.50
76394;BMP180;65216;51.090;-115.352;2023-09-12T07:00:30;86924.40;;;21.50
76394;BMP180;65216;51.090;-115.352;2023-09-12T07:02:57;86914.20;;;21.50
76394;BMP180;65216;51.090;-115.352;2023-09-12T07:05:24;86930.40;;;21.50
76394;BMP180;65216;51.090;-115.352;2023-09-12T07:07:53;86928.60;;;21.50
76394;BMP180;65216;51.090;-115.352;2023-09-12T07:10:20;86930.20;;;21.48
76394;BMP180;65216;51.090;-115.352;2023-09-12T07:12:47;86927.00;;;21.48
76394;BMP180;65216;51.090;-115.352;2023-09-12T07:15:14;86929.60;;;21.50
76394;BMP180;65216;51.090;-115.352;2023-09-12T07:17:41;86924.80;;;21.48
76394;BMP180;65216;51.090;-115.352;2023-09-12T07:20:09;86923.00;;;21.48
76394;BMP180;65216;51.090;-115.352;2023-09-12T07:22:39;86916.80;;;21.42
76394;BMP180;65216;51.090;-115.352;2023-09-12T07:25:07;86909.00;;;21.40
76394;BMP180;65216;51.090;-115.352;2023-09-12T07:27:38;86906.60;;;21.46
76394;BMP180;65216;51.090;-115.352;2023-09-12T07:30:06;86912.80;;;21.46
76394;BMP180;65216;51.090;-115.352;2023-09-12T07:32:33;86914.00;;;21.40
76394;BMP180;65216;51.090;-115.352;2023-09-12T07:35:00;86911.20;;;21.40
76394;BMP180;65216;51.090;-115.352;2023-09-12T07:37:28;86908.80;;;21.40
76394;BMP180;65216;51.090;-115.352;2023-09-12T07:39:54;86910.00;;;21.40
76394;BMP180;65216;51.090;-115.352;2023-09-12T07:42:23;86908.40;;;21.40
76394;BMP180;65216;51.090;-115.352;2023-09-12T07:44:50;86904.00;;;21.40
76394;BMP180;65216;51.090;-115.352;2023-09-12T07:47:19;86914.00;;;21.40
76394;BMP180;65216;51.090;-115.352;2023-09-12T07:49:45;86917.60;;;21.40
76394;BMP180;65216;51.090;-115.352;2023-09-12T07:52:12;86914.20;;;21.40
76394;BMP180;65216;51.090;-115.352;2023-09-12T07:54:39;86915.00;;;21.40
76394;BMP180;65216;51.090;-115.352;2023-09-12T07:57:06;86914.60;;;21.40
76394;BMP180;65216;51.090;-115.352;2023-09-12T07:59:34;86919.20;;;21.40
76394;BMP180;65216;51.090;-115.352;2023-09-12T08:02:01;86916.00;;;21.40
76394;BMP180;65216;51.090;-115.352;2023-09-12T08:04:28;86919.20;;;21.40
76394;BMP180;65216;51.090;-115.352;2023-09-12T08:06:55;86921.60;;;21.40
76394;BMP180;65216;51.090;-115.352;2023-09-12T08:09:22;86918.80;;;21.40
76394;BMP180;65216;51.090;-115.352;2023-09-12T08:11:49;86914.80;;;21.40
76394;BMP180;65216;51.090;-115.352;2023-09-12T08:14:16;86910.40;;;21.40
76394;BMP180;65216;51.090;-115.352;2023-09-12T08:16:43;86913.80;;;21.40
76394;BMP180;65216;51.090;-115.352;2023-09-12T08:19:09;86911.80;;;21.40
76394;BMP180;65216;51.090;-115.352;2023-09-12T08:21:36;86910.60;;;21.40
76394;BMP180;65216;51.090;-115.352;2023-09-12T08:24:03;86917.20;;;21.40
76394;BMP180;65216;51.090;-115.352;2023-09-12T08:26:30;86910.80;;;21.40
76394;BMP180;65216;51.090;-115.352;2023-09-12T08:28:58;86913.60;;;21.40
76394;BMP180;65216;51.090;-115.352;2023-09-12T08:31:25;86920.60;;;21.40
76394;BMP180;65216;51.090;-115.352;2023-09-12T08:33:53;86917.00;;;21.40
76394;BMP180;65216;51.090;-115.352;2023-09-12T08:36:20;86914.80;;;21.40
76394;BMP180;65216;51.090;-115.352;2023-09-12T08:38:47;86916.40;;;21.40
76394;BMP180;65216;51.090;-115.352;2023-09-12T08:41:14;86923.00;;;21.40
76394;BMP180;65216;51.090;-115.352;2023-09-12T08:43:41;86920.00;;;21.40
76394;BMP180;65216;51.090;-115.352;2023-09-12T08:46:09;86913.40;;;21.40
76394;BMP180;65216;51.090;-115.352;2023-09-12T08:48:38;86911.80;;;21.40
76394;BMP180;65216;51.090;-115.352;2023-09-12T08:51:07;86919.40;;;21.40
76394;BMP180;65216;51.090;-115.352;2023-09-12T08:53:35;86917.00;;;21.40
76394;BMP180;65216;51.090;-115.352;2023-09-12T08:56:02;86910.20;;;21.40
76394;BMP180;65216;51.090;-115.352;2023-09-12T08:58:32;86911.40;;;21.40
76394;BMP180;65216;51.090;-115.352;2023-09-12T09:01:02;86911.60;;;21.40
76394;BMP180;65216;51.090;-115.352;2023-09-12T09:03:30;86916.40;;;21.40
76394;BMP180;65216;51.090;-115.352;2023-09-12T09:05:58;86921.60;;;21.40
76394;BMP180;65216;51.090;-115.352;2023-09-12T09:08:26;86922.60;;;21.40
76394;BMP180;65216;51.090;-115.352;2023-09-12T09:11:01;86916.20;;;21.40
76394;BMP180;65216;51.090;-115.352;2023-09-12T09:13:33;86913.60;;;21.40
76394;BMP180;65216;51.090;-115.352;2023-09-12T09:16:18;86917.20;;;21.40
76394;BMP180;65216;51.090;-115.352;2023-09-12T09:18:59;86915.80;;;21.40
76394;BMP180;65216;51.090;-115.352;2023-09-12T09:21:29;86912.20;;;21.36
76394;BMP180;65216;51.090;-115.352;2023-09-12T09:24:12;86915.00;;;21.34
76394;BMP180;65216;51.090;-115.352;2023-09-12T09:26:50;86913.00;;;21.32
76394;BMP180;65216;51.090;-115.352;2023-09-12T09:29:19;86915.40;;;21.30
76394;BMP180;65216;51.090;-115.352;2023-09-12T09:31:50;86915.60;;;21.32
76394;BMP180;65216;51.090;-115.352;2023-09-12T09:34:21;86906.80;;;21.30
76394;BMP180;65216;51.090;-115.352;2023-09-12T09:36:51;86907.60;;;21.30
76394;BMP180;65216;51.090;-115.352;2023-09-12T09:39:20;86913.40;;;21.30
76394;BMP180;65216;51.090;-115.352;2023-09-12T09:41:55;86910.00;;;21.30
76394;BMP180;65216;51.090;-115.352;2023-09-12T09:44:25;86909.40;;;21.30
76394;BMP180;65216;51.090;-115.352;2023-09-12T09:47:00;86914.80;;;21.30
76394;BMP180;65216;51.090;-115.352;2023-09-12T09:49:31;86918.80;;;21.30
76394;BMP180;65216;51.090;-115.352;2023-09-12T09:52:04;86911.60;;;21.30
76394;BMP180;65216;51.090;-115.352;2023-09-12T09:54:32;86920.20;;;21.26
76394;BMP180;65216;51.090;-115.352;2023-09-12T09:56:59;86921.00;;;21.20
76394;BMP180;65216;51.090;-115.352;2023-09-12T09:59:27;86916.40;;;21.20
76394;BMP180;65216;51.090;-115.352;2023-09-12T10:01:59;86916.20;;;21.20
76394;BMP180;65216;51.090;-115.352;2023-09-12T10:04:28;86915.60;;;21.20
76394;BMP180;65216;51.090;-115.352;2023-09-12T10:06:58;86912.40;;;21.20
76394;BMP180;65216;51.090;-115.352;2023-09-12T10:09:30;86913.00;;;21.10
76394;BMP180;65216;51.090;-115.352;2023-09-12T10:11:59;86907.60;;;21.10
76394;BMP180;65216;51.090;-115.352;2023-09-12T10:14:28;86907.60;;;21.10
76394;BMP180;65216;51.090;-115.352;2023-09-12T10:17:01;86911.00;;;21.10
76394;BMP180;65216;51.090;-115.352;2023-09-12T10:19:55;86908.80;;;21.10
76394;BMP180;65216;51.090;-115.352;2023-09-12T10:22:37;86906.40;;;21.10
76394;BMP180;65216;51.090;-115.352;2023-09-12T10:25:06;86910.60;;;21.14
76394;BMP180;65216;51.090;-115.352;2023-09-12T10:27:34;86900.00;;;21.12
76394;BMP180;65216;51.090;-115.352;2023-09-12T10:30:02;86905.40;;;21.10
76394;BMP180;65216;51.090;-115.352;2023-09-12T10:32:33;86896.80;;;21.12
76394;BMP180;65216;51.090;-115.352;2023-09-12T10:35:03;86894.80;;;21.16
76394;BMP180;65216;51.090;-115.352;2023-09-12T10:37:38;86915.60;;;21.20
76394;BMP180;65216;51.090;-115.352;2023-09-12T10:40:10;86916.40;;;21.20
76394;BMP180;65216;51.090;-115.352;2023-09-12T10:42:39;86914.20;;;21.20
76394;BMP180;65216;51.090;-115.352;2023-09-12T10:45:07;86911.80;;;21.20
76394;BMP180;65216;51.090;-115.352;2023-09-12T10:47:36;86907.60;;;21.20
76394;BMP180;65216;51.090;-115.352;2023-09-12T10:50:04;86910.20;;;21.20
76394;BMP180;65216;51.090;-115.352;2023-09-12T10:52:31;86922.20;;;21.20
76394;BMP180;65216;51.090;-115.352;2023-09-12T10:55:05;86912.80;;;21.20
76394;BMP180;65216;51.090;-115.352;2023-09-12T10:57:33;86916.40;;;21.20
76394;BMP180;65216;51.090;-115.352;2023-09-12T11:02:39;86920.00;;;21.18
76394;BMP180;65216;51.090;-115.352;2023-09-12T11:07:58;86931.40;;;21.10
76394;BMP180;65216;51.090;-115.352;2023-09-12T11:10:27;86936.40;;;21.10
76394;BMP180;65216;51.090;-115.352;2023-09-12T11:12:58;86931.20;;;21.10
76394;BMP180;65216;51.090;-115.352;2023-09-12T11:15:27;86923.80;;;21.10
76394;BMP180;65216;51.090;-115.352;2023-09-12T11:18:07;86926.00;;;21.10
76394;BMP180;65216;51.090;-115.352;2023-09-12T11:21:00;86932.40;;;21.10
76394;BMP180;65216;51.090;-115.352;2023-09-12T11:23:31;86927.80;;;21.00
76394;BMP180;65216;51.090;-115.352;2023-09-12T11:26:08;86929.40;;;21.00
76394;BMP180;65216;51.090;-115.352;2023-09-12T11:28:38;86933.40;;;21.00
76394;BMP180;65216;51.090;-115.352;2023-09-12T11:31:06;86934.20;;;21.00
76394;BMP180;65216;51.090;-115.352;2023-09-12T11:33:33;86934.00;;;21.00
76394;BMP180;65216;51.090;-115.352;2023-09-12T11:36:02;86938.00;;;21.00
76394;BMP180;65216;51.090;-115.352;2023-09-12T11:38:31;86948.00;;;21.00
76394;BMP180;65216;51.090;-115.352;2023-09-12T11:41:00;86943.40;;;21.00
76394;BMP180;65216;51.090;-115.352;2023-09-12T11:43:28;86946.00;;;21.00
76394;BMP180;65216;51.090;-115.352;2023-09-12T11:45:57;86946.00;;;21.00
76394;BMP180;65216;51.090;-115.352;2023-09-12T11:48:24;86948.00;;;21.00
76394;BMP180;65216;51.090;-115.352;2023-09-12T11:50:56;86946.60;;;21.00
76394;BMP180;65216;51.090;-115.352;2023-09-12T11:53:27;86942.20;;;21.00
76394;BMP180;65216;51.090;-115.352;2023-09-12T11:56:01;86943.20;;;21.00
76394;BMP180;65216;51.090;-115.352;2023-09-12T11:58:28;86946.40;;;21.00
76394;BMP180;65216;51.090;-115.352;2023-09-12T12:00:59;86942.40;;;21.00
76394;BMP180;65216;51.090;-115.352;2023-09-12T12:03:27;86943.60;;;21.00
76394;BMP180;65216;51.090;-115.352;2023-09-12T12:05:58;86946.80;;;21.00
76394;BMP180;65216;51.090;-115.352;2023-09-12T12:08:25;86943.80;;;21.00
76394;BMP180;65216;51.090;-115.352;2023-09-12T12:10:53;86943.20;;;21.00
76394;BMP180;65216;51.090;-115.352;2023-09-12T12:13:22;86940.60;;;21.00
76394;BMP180;65216;51.090;-115.352;2023-09-12T12:15:49;86937.20;;;21.00
76394;BMP180;65216;51.090;-115.352;2023-09-12T12:18:16;86934.80;;;21.00
76394;BMP180;65216;51.090;-115.352;2023-09-12T12:20:43;86938.40;;;21.00
76394;BMP180;65216;51.090;-115.352;2023-09-12T12:23:10;86944.60;;;21.00
76394;BMP180;65216;51.090;-115.352;2023-09-12T12:25:38;86939.00;;;21.00
76394;BMP180;65216;51.090;-115.352;2023-09-12T12:28:06;86941.20;;;21.00
76394;BMP180;65216;51.090;-115.352;2023-09-12T12:30:35;86943.60;;;21.00
76394;BMP180;65216;51.090;-115.352;2023-09-12T12:33:08;86945.20;;;21.02
76394;BMP180;65216;51.090;-115.352;2023-09-12T12:35:35;86948.20;;;21.06
76394;BMP180;65216;51.090;-115.352;2023-09-12T12:38:03;86944.20;;;21.02
76394;BMP180;65216;51.090;-115.352;2023-09-12T12:40:30;86948.60;;;21.04
76394;BMP180;65216;51.090;-115.352;2023-09-12T12:42:58;86950.20;;;21.04
76394;BMP180;65216;51.090;-115.352;2023-09-12T12:45:25;86942.80;;;21.08
76394;BMP180;65216;51.090;-115.352;2023-09-12T12:48:00;86947.00;;;21.02
76394;BMP180;65216;51.090;-115.352;2023-09-12T12:50:27;86944.80;;;21.00
76394;BMP180;65216;51.090;-115.352;2023-09-12T12:52:54;86947.00;;;21.02
76394;BMP180;65216;51.090;-115.352;2023-09-12T12:55:25;86952.60;;;21.10
76394;BMP180;65216;51.090;-115.352;2023-09-12T12:57:52;86947.60;;;21.02
76394;BMP180;65216;51.090;-115.352;2023-09-12T13:00:19;86951.80;;;21.10
76394;BMP180;65216;51.090;-115.352;2023-09-12T13:02:48;86953.20;;;21.10
76394;BMP180;65216;51.090;-115.352;2023-09-12T13:05:25;86941.80;;;21.10
76394;BMP180;65216;51.090;-115.352;2023-09-12T13:07:53;86944.00;;;21.10
76394;BMP180;65216;51.090;-115.352;2023-09-12T13:10:22;86948.60;;;21.10
76394;BMP180;65216;51.090;-115.352;2023-09-12T13:12:50;86947.80;;;21.10
76394;BMP180;65216;51.090;-115.352;2023-09-12T13:15:20;86953.80;;;21.10
76394;BMP180;65216;51.090;-115.352;2023-09-12T13:17:47;86953.80;;;21.10
76394;BMP180;65216;51.090;-115.352;2023-09-12T13:20:15;86951.60;;;21.10
76394;BMP180;65216;51.090;-115.352;2023-09-12T13:22:41;86950.80;;;21.10
76394;BMP180;65216;51.090;-115.352;2023-09-12T13:25:10;86958.00;;;21.10
76394;BMP180;65216;51.090;-115.352;2023-09-12T13:27:37;86951.80;;;21.10
76394;BMP180;65216;51.090;-115.352;2023-09-12T13:30:05;86953.80;;;21.10
76394;BMP180;65216;51.090;-115.352;2023-09-12T13:32:32;86954.20;;;21.10
76394;BMP180;65216;51.090;-115.352;2023-09-12T13:34:59;86948.00;;;21.10
76394;BMP180;65216;51.090;-115.352;2023-09-12T13:37:26;86963.20;;;21.10
76394;BMP180;65216;51.090;-115.352;2023-09-12T13:39:54;86965.40;;;21.12
76394;BMP180;65216;51.090;-115.352;2023-09-12T13:42:21;86952.40;;;21.20
76394;BMP180;65216;51.090;-115.352;2023-09-12T13:44:48;86953.80;;;21.20
76394;BMP180;65216;51.090;-115.352;2023-09-12T13:47:16;86950.00;;;21.20
76394;BMP180;65216;51.090;-115.352;2023-09-12T13:49:50;86957.20;;;21.20
76394;BMP180;65216;51.090;-115.352;2023-09-12T13:52:21;86956.20;;;21.20
76394;BMP180;65216;51.090;-115.352;2023-09-12T13:54:51;86957.60;;;21.18
76394;BMP180;65216;51.090;-115.352;2023-09-12T13:57:20;86963.00;;;21.20